Pamukkale, Turkey
Current Conditions -  °F | °C
As of 11:50 PM on Tuesday 25 Nov 2014 (Local Time) from LTAY Reporting Station
Broken Clouds Broken Clouds  
Wind Chill: 29°   Ceiling: 3000
Heat Index: 37°   Visibility: 6mi
Dew Point: 32°   Wind: 14mph
Humidity: 81%   Direction: 290°WNW
Pressure: 29.91"   Gusts: NA
Location:  37.89°N, 29.13°E
Report Text: LTAY 252050Z 29012KT 9999 BKN030 BKN090 03/00 Q1013
Loading
Personal Weather Stations






























Interactive Weather Map New forecast layout! Learn more

10-Day Weather Forecast

Advertisements
Track Severe Weather on mobile